AirNav   Everest Fuels
 
 1093 users online  

95OK Barcus Field Airport
Claremore, Oklahoma, USA

GOING TO CLAREMORE?


FAA INFORMATION EFFECTIVE 04 NOVEMBER 2021

Location

FAA Identifier: 95OK
Lat/Long: 36-16-03.3400N 095-37-50.5200W
36-16.055667N 095-37.842000W
36.2675944,-95.6307000
(estimated)
Elevation: 660 ft. / 201 m (estimated)
Variation: 05E (1995)
From city: 3 miles N of CLAREMORE, OK
Time zone: UTC -5 (UTC -6 during Standard Time)
Zip code: 74017

Airport Operations

Airport use: Private use. Permission required prior to landing
Activation date: 01/1998
Control tower: no
ARTCC: KANSAS CITY CENTER
FSS: MC ALESTER FLIGHT SERVICE STATION
Attendance: UNATNDD
Segmented circle: no

Airport Communications

WX AWOS-3P at GCM (7 nm E): 119.925 (918-343-0184)
WX ASOS at TUL (13 nm W): PHONE 918-831-6772
WX AWOS-3PT at H71 (15 nm E): 120.1 (918-476-0517)

Nearby radio navigation aids

VOR radial/distance  VOR name  Freq  Var
TULr053/8.7TULSA VORTAC114.4008E
OKMr010/36.3OKMULGEE VOR/DME114.9008E
BVOr143/38.8BARTLESVILLE VOR/DME117.9008E

Airport Services

Runway Information

Runway 17/35

Dimensions: 2500 x 50 ft. / 762 x 15 m
Surface: turf
RUNWAY 17  RUNWAY 35
Traffic pattern: rightleft
Obstructions: 17 ft. road, 350 ft. from runway15 ft. road, 20 ft. from runway

Airport Ownership and Management from official FAA records

Ownership: Privately-owned
Owner: LARRY MELTON
PO BOX 1028, 23955 S. 4140 RD
CLAREMORE, OK 74018
Phone (918) 633-9453
918-633-9453
Manager: LARRY MELTON
PO BOX 1028, 23955 S. 4140 RD.
CLAREMORE, OK 74018
Phone (918) 633-9453
PHYSICAL ADDRESS FOR AIRPORT

Airport Operational Statistics

Aircraft based on the field: 2
Single engine airplanes: 2
    

Additional Remarks

FOR CD CTC TULSA APCH AT 918-831-6714/6720.

Instrument Procedures

There are no published instrument procedures at 95OK.

Some nearby airports with instrument procedures:

KGCM - Claremore Regional Airport (7 nm E)
KTUL - Tulsa International Airport (13 nm W)
H71 - Mid-America Industrial Airport (15 nm E)
KRVS - Richard Lloyd Jones Jr Airport (22 nm SW)
H68 - Hefner-Easley Airport (23 nm SE)
 
Loc | Ops | Rwys | IFR | FBO | Links
Com | Nav | Svcs | Stats | Notes
Area around 95OK (Barcus Field Airport)
 
Road maps at: MapQuest Bing Google
 
Aerial photo
No photo
 
Sectional chart

 
Airport distance calculator
Flying to Barcus Field Airport? Find the distance to fly.

From to 95OK

Sunrise and sunset
Times for 30-Nov-2021
 Local
(UTC-6)
 Zulu
(UTC)
Morning civil twilight06:4712:47
Sunrise07:1513:15
Sunset17:0723:07
Evening civil twilight17:3523:35

Current date and time
Zulu (UTC)  01-Dec-2021 03:33:10
Local (UTC-6)  30-Nov-2021 21:33:10
 
METAR
KGCM 
7nm E 
010315Z AUTO 17006KT 10SM CLR 10/05 A3002 RMK AO2
KTUL 
13nm W 
010253Z 15003KT 10SM SCT130 SCT200 13/07 A3000 RMK AO2 SLP157 T01280067 50000
KH71 
15nm E 
010315Z AUTO 00000KT 10SM CLR 07/05 A3001 RMK AO2
TAF
KTUL 
13nm W 
301720Z 3018/0118 12009KT P6SM SCT250 FM010100 VRB04KT P6SM SKC FM011500 28006KT P6SM SKC
NOTAMs
Click for the latest NOTAMs
NOTAMs are issued by the DoD/FAA and will open in a separate window not controlled by AirNav.

 

 
 

Would you like to see your business listed on this page?

 If your business provides an interesting product or service to pilots, flight crews, aircraft, or users of the Barcus Field Airport, you should consider listing it here.  To start the listing process, click on the button below
 
Add a business
 

Other Pages about Barcus Field Airport

Update a link
 
Copyright © AirNav, LLC. All rights reserved. Privacy Policy  Contact